Time;durP1;ratioP1;P1;durP2;ratioP2;P2;SDS_P1;SDS_P2;PMS_P1;PMS_P2;Temp;Humidity;BMP_temperature;BMP_pressure;BME280_temperature;BME280_humidity;BME280_pressure;Samples;Min_cycle;Max_cycle;Signal;HPM_P1;HPM_P2
2023/05/02 00:01:58;;;;;;;11.40;1.75;;;10.00;99.90;;;;;;4971257;28;20045;-82
2023/05/02 00:04:24;;;;;;;0.17;0.17;;;10.00;99.90;;;;;;4969544;28;20050;-82
2023/05/02 00:06:53;;;;;;;0.28;0.28;;;9.90;99.90;;;;;;4970744;28;20378;-82
2023/05/02 00:09:19;;;;;;;0.13;0.08;;;9.80;99.90;;;;;;4969493;28;20133;-83
2023/05/02 00:11:45;;;;;;;0.00;0.00;;;9.70;99.90;;;;;;4971930;28;20567;-83
2023/05/02 00:14:10;;;;;;;0.00;0.00;;;9.60;99.90;;;;;;4969952;28;20053;-83
2023/05/02 00:16:36;;;;;;;0.25;0.10;;;9.50;99.90;;;;;;4968261;28;20042;-83
2023/05/02 00:19:02;;;;;;;0.60;0.52;;;9.50;99.90;;;;;;4968237;28;20052;-83
2023/05/02 00:21:28;;;;;;;0.00;0.00;;;9.40;99.90;;;;;;4967838;28;20168;-83
2023/05/02 00:23:55;;;;;;;1.02;0.47;;;9.40;99.90;;;;;;4966390;28;20055;-84
2023/05/02 00:26:22;;;;;;;1.88;0.70;;;9.40;99.90;;;;;;4966169;28;20096;-83
2023/05/02 00:28:47;;;;;;;0.43;0.30;;;9.30;99.90;;;;;;4966633;28;20066;-84
2023/05/02 00:31:13;;;;;;;0.00;0.00;;;9.30;99.90;;;;;;4966943;28;20049;-83
2023/05/02 00:33:39;;;;;;;0.00;0.00;;;9.20;99.90;;;;;;4968858;28;20523;-83
2023/05/02 00:36:13;;;;;;;2.80;0.98;;;9.20;99.90;;;;;;4967311;28;20051;-82
2023/05/02 00:38:39;;;;;;;0.47;0.38;;;9.10;99.90;;;;;;4966014;28;20051;-84
2023/05/02 00:41:05;;;;;;;0.10;0.03;;;9.10;99.90;;;;;;4966037;28;20054;-84
2023/05/02 00:43:31;;;;;;;0.00;0.00;;;9.00;99.90;;;;;;4965653;28;20380;-85
2023/05/02 00:45:57;;;;;;;0.85;0.65;;;8.90;99.90;;;;;;4965554;28;20058;-84
2023/05/02 00:48:24;;;;;;;0.10;0.10;;;8.90;99.90;;;;;;4965598;28;20047;-85
2023/05/02 00:50:50;;;;;;;1.75;1.25;;;8.90;99.90;;;;;;4966427;28;20061;-84
2023/05/02 00:53:16;;;;;;;0.65;0.47;;;8.90;99.90;;;;;;4966980;28;20062;-84
2023/05/02 00:55:42;;;;;;;0.00;0.00;;;8.80;99.90;;;;;;4969496;28;20090;-85
2023/05/02 00:58:12;;;;;;;0.20;0.20;;;8.80;99.90;;;;;;4970015;28;20086;-84
2023/05/02 01:00:57;;;;;;;0.08;0.08;;;8.80;99.90;;;;;;4969233;28;20104;-84
2023/05/02 01:03:31;;;;;;;0.08;0.08;;;8.80;99.90;;;;;;4968994;28;20106;-84
2023/05/02 01:06:10;;;;;;;1.30;1.20;;;8.80;99.90;;;;;;4968927;28;20047;-84
2023/05/02 01:08:49;;;;;;;0.00;0.00;;;8.70;99.90;;;;;;4969504;28;20062;-84
2023/05/02 01:11:30;;;;;;;0.00;0.00;;;8.80;99.90;;;;;;4968573;28;20050;-83
2023/05/02 01:14:00;;;;;;;0.00;0.00;;;8.70;99.90;;;;;;4969921;28;20082;-84
2023/05/02 01:16:27;;;;;;;2.08;0.25;;;8.70;99.90;;;;;;4969998;28;20058;-84
2023/05/02 01:18:54;;;;;;;0.00;0.00;;;8.60;99.90;;;;;;4970812;28;20051;-84
2023/05/02 01:21:21;;;;;;;0.00;0.00;;;8.60;99.90;;;;;;4971051;28;20059;-84
2023/05/02 01:23:49;;;;;;;0.08;0.00;;;8.50;99.90;;;;;;4970844;28;20062;-84
2023/05/02 01:26:52;;;;;;;0.03;0.03;;;8.40;99.90;;;;;;4969177;28;20460;-84
2023/05/02 01:29:21;;;;;;;0.17;0.17;;;8.40;99.90;;;;;;4969728;28;20058;-84
2023/05/02 01:31:49;;;;;;;0.20;0.10;;;9.00;99.90;;;;;;5031728;22;20077;-86
2023/05/02 01:34:18;;;;;;;1.15;0.75;;;9.50;99.90;;;;;;5025613;28;20057;-87
2023/05/02 01:36:47;;;;;;;0.00;0.00;;;9.20;99.90;;;;;;5030280;28;20052;-86
2023/05/02 01:39:18;;;;;;;0.00;0.00;;;8.50;99.90;;;;;;5030556;28;20045;-86
2023/05/02 01:41:45;;;;;;;0.20;0.13;;;8.50;99.90;;;;;;5034206;28;20099;-86
2023/05/02 01:44:14;;;;;;;0.75;0.28;;;8.50;99.90;;;;;;5032383;28;20055;-86
2023/05/02 01:46:42;;;;;;;0.00;0.00;;;8.60;99.90;;;;;;5034058;28;20034;-86
2023/05/02 01:49:09;;;;;;;0.00;0.00;;;8.60;99.90;;;;;;5033333;28;20120;-86
2023/05/02 01:51:40;;;;;;;1.38;0.32;;;8.60;99.90;;;;;;5032135;28;20133;-86
2023/05/02 01:54:07;;;;;;;0.90;0.32;;;8.60;99.90;;;;;;5046265;23;20100;-84
2023/05/02 01:56:36;;;;;;;0.50;0.43;;;8.60;99.90;;;;;;5028811;28;20054;-84
2023/05/02 01:59:05;;;;;;;2.20;0.68;;;8.70;99.90;;;;;;5032611;28;20115;-85
2023/05/02 02:01:32;;;;;;;0.52;0.52;;;8.70;99.90;;;;;;5010357;28;20578;-85
2023/05/02 02:04:00;;;;;;;0.88;0.88;;;8.40;99.90;;;;;;5014537;28;20042;-84
2023/05/02 02:06:26;;;;;;;1.55;0.52;;;8.10;99.90;;;;;;5029460;28;20049;-85
2023/05/02 02:08:53;;;;;;;0.17;0.17;;;8.00;99.90;;;;;;5028909;28;20049;-84
2023/05/02 02:11:26;;;;;;;0.00;0.00;;;7.90;99.90;;;;;;5029995;28;20052;-86
2023/05/02 02:14:00;;;;;;;0.00;0.00;;;7.80;99.90;;;;;;5030847;28;20049;-84
2023/05/02 02:16:31;;;;;;;1.85;0.68;;;7.80;99.90;;;;;;5030995;28;20045;-85
2023/05/02 02:19:01;;;;;;;0.00;0.00;;;7.70;99.90;;;;;;5028812;28;20175;-85
2023/05/02 02:21:30;;;;;;;1.25;1.10;;;7.70;99.90;;;;;;5029219;28;20061;-85
2023/05/02 02:23:58;;;;;;;2.25;1.35;;;7.60;99.90;;;;;;5029685;28;20407;-85
2023/05/02 02:26:24;;;;;;;0.15;0.15;;;7.60;99.90;;;;;;5021811;28;20348;-85
2023/05/02 02:28:50;;;;;;;0.08;0.08;;;7.60;99.90;;;;;;5022478;28;20049;-84
2023/05/02 02:31:15;;;;;;;0.00;0.00;;;7.60;99.90;;;;;;5020802;28;20134;-85
2023/05/02 02:33:41;;;;;;;0.55;0.35;;;7.50;99.90;;;;;;5044787;28;20399;-85
2023/05/02 02:36:45;;;;;;;0.95;0.82;;;7.50;99.90;;;;;;5048913;28;20053;-85
2023/05/02 02:39:24;;;;;;;0.13;0.13;;;7.50;99.90;;;;;;5017294;28;20161;-85
2023/05/02 02:42:38;;;;;;;0.20;0.20;;;7.50;99.90;;;;;;5031612;28;20104;-85
2023/05/02 02:45:10;;;;;;;0.00;0.00;;;7.50;99.90;;;;;;5026211;28;20057;-85
2023/05/02 02:47:47;;;;;;;0.20;0.20;;;7.50;99.90;;;;;;5029370;28;20049;-84
2023/05/02 02:50:21;;;;;;;0.45;0.45;;;7.40;99.90;;;;;;5030433;28;20049;-85
2023/05/02 02:52:59;;;;;;;0.47;0.45;;;7.30;99.90;;;;;;5030800;28;20056;-84
2023/05/02 02:55:43;;;;;;;0.10;0.10;;;7.30;99.90;;;;;;5029237;28;20132;-84
2023/05/02 02:58:19;;;;;;;0.50;0.50;;;7.30;99.90;;;;;;5032525;28;20041;-85
2023/05/02 03:00:45;;;;;;;;;;;7.30;99.90;;;;;;5032552;28;20060;-84
2023/05/02 03:03:13;;;;;;;0.38;0.38;;;7.20;99.90;;;;;;5029480;28;19925;-84
2023/05/02 03:05:39;;;;;;;0.00;0.00;;;7.30;99.90;;;;;;5039816;28;20395;-84
2023/05/02 03:08:05;;;;;;;0.30;0.30;;;7.20;99.90;;;;;;5036184;28;20076;-84
2023/05/02 03:10:32;;;;;;;1.08;0.95;;;7.20;99.90;;;;;;5050140;28;20060;-84
2023/05/02 03:12:58;;;;;;;0.13;0.13;;;7.20;99.90;;;;;;5050630;28;20060;-84
2023/05/02 03:15:48;;;;;;;3.20;2.10;;;7.20;99.90;;;;;;5050261;28;20471;-84
2023/05/02 03:18:15;;;;;;;0.32;0.30;;;7.20;99.90;;;;;;5042594;28;20083;-85
2023/05/02 03:20:40;;;;;;;1.95;1.65;;;7.20;99.90;;;;;;5030022;28;20056;-85
2023/05/02 03:23:06;;;;;;;0.30;0.20;;;7.10;95.50;;;;;;5030697;28;20491;-84
2023/05/02 03:25:32;;;;;;;0.00;0.00;;;7.20;1.00;;;;;;5029699;28;20616;-84
2023/05/02 03:27:57;;;;;;;0.10;0.10;;;7.20;99.90;;;;;;5030983;28;20037;-84
2023/05/02 03:30:23;;;;;;;0.30;0.30;;;7.20;99.90;;;;;;5030593;28;20051;-84
2023/05/02 03:32:48;;;;;;;0.20;0.20;;;7.20;99.90;;;;;;5050234;28;20107;-84
2023/05/02 03:35:15;;;;;;;1.02;0.73;;;7.10;99.90;;;;;;5051403;28;20049;-83
2023/05/02 03:37:40;;;;;;;0.70;0.70;;;7.10;99.90;;;;;;5050980;28;20141;-84
2023/05/02 03:40:07;;;;;;;0.25;0.20;;;7.10;99.90;;;;;;5051647;28;20414;-83
2023/05/02 03:42:40;;;;;;;0.47;0.47;;;7.00;1.00;;;;;;5051923;28;20055;-85
2023/05/02 03:45:09;;;;;;;0.03;0.00;;;7.00;99.90;;;;;;5051231;28;20048;-83
2023/05/02 03:47:34;;;;;;;0.10;0.10;;;6.90;99.90;;;;;;5052637;28;20060;-84
2023/05/02 03:50:02;;;;;;;0.75;0.28;;;7.00;1.00;;;;;;5051238;28;20418;-84
2023/05/02 03:52:28;;;;;;;0.20;0.20;;;6.90;49.90;;;;;;5033242;28;20100;-83
2023/05/02 03:54:53;;;;;;;2.20;1.30;;;6.90;99.90;;;;;;5030122;28;20061;-83
2023/05/02 03:57:20;;;;;;;0.73;0.70;;;6.90;99.90;;;;;;5032815;28;20103;-83
2023/05/02 03:59:46;;;;;;;0.40;0.40;;;7.30;51.50;;;;;;5049761;28;20095;-84
2023/05/02 04:02:11;;;;;;;0.32;0.32;;;7.00;1.00;;;;;;5052476;28;20048;-83
2023/05/02 04:04:39;;;;;;;0.10;0.10;;;7.00;99.90;;;;;;5050946;28;20113;-83
2023/05/02 04:07:06;;;;;;;0.00;0.00;;;6.90;99.90;;;;;;5051752;28;20037;-83
2023/05/02 04:09:32;;;;;;;0.47;0.47;;;6.90;25.50;;;;;;5052550;28;20102;-83
2023/05/02 04:11:58;;;;;;;0.00;0.00;;;6.90;99.90;;;;;;5051122;28;20060;-82
2023/05/02 04:14:24;;;;;;;0.75;0.75;;;6.90;99.90;;;;;;5053957;28;20041;-82
2023/05/02 04:16:51;;;;;;;0.52;0.50;;;6.90;99.90;;;;;;5054552;28;20048;-84
2023/05/02 04:19:17;;;;;;;0.00;0.00;;;6.90;99.90;;;;;;5042169;28;20041;-83
2023/05/02 04:21:44;;;;;;;0.00;0.00;;;7.20;99.90;;;;;;5043651;28;20123;-83
2023/05/02 04:24:10;;;;;;;0.00;0.00;;;6.90;99.90;;;;;;5053993;28;20045;-83
2023/05/02 04:26:36;;;;;;;0.43;0.30;;;6.90;99.90;;;;;;5055117;28;20037;-83
2023/05/02 04:29:03;;;;;;;0.15;0.15;;;6.90;99.90;;;;;;5052546;28;20041;-82
2023/05/02 04:31:30;;;;;;;0.00;0.00;;;6.90;99.90;;;;;;5039700;28;20105;-82
2023/05/02 04:33:56;;;;;;;0.00;0.00;;;6.90;99.90;;;;;;5039853;28;20037;-82
2023/05/02 04:36:23;;;;;;;0.00;0.00;;;6.80;99.90;;;;;;5039197;28;20055;-82
2023/05/02 04:38:48;;;;;;;0.00;0.00;;;6.90;99.90;;;;;;5039437;28;20036;-83
2023/05/02 04:41:14;;;;;;;3.42;1.65;;;6.80;1.00;;;;;;5039116;28;20049;-82
2023/05/02 04:43:40;;;;;;;0.00;0.00;;;6.90;1.00;;;;;;5039276;28;20424;-82
2023/05/02 04:46:06;;;;;;;0.10;0.10;;;6.90;99.90;;;;;;5038515;28;20053;-83
2023/05/02 04:48:32;;;;;;;4.07;2.22;;;6.90;99.90;;;;;;5050994;28;20041;-82
2023/05/02 04:50:58;;;;;;;0.00;0.00;;;6.90;99.90;;;;;;5057716;28;20064;-82
2023/05/02 04:53:23;;;;;;;0.28;0.28;;;6.90;99.90;;;;;;5059833;28;20041;-82
2023/05/02 04:55:49;;;;;;;0.00;0.00;;;6.90;70.90;;;;;;5058702;28;20061;-82
2023/05/02 04:58:15;;;;;;;0.10;0.10;;;6.90;5.70;;;;;;5060305;28;20040;-83
2023/05/02 05:00:41;;;;;;;0.15;0.15;;;6.90;1.00;;;;;;5058880;28;20037;-82
2023/05/02 05:03:06;;;;;;;8.07;1.58;;;6.90;1.00;;;;;;5060172;28;20057;-83
2023/05/02 05:05:32;;;;;;;0.00;0.00;;;6.90;99.90;;;;;;5059227;28;20048;-84
2023/05/02 05:07:58;;;;;;;0.08;0.08;;;7.00;99.90;;;;;;5057542;28;20105;-82
2023/05/02 05:10:24;;;;;;;4.30;0.22;;;7.00;99.90;;;;;;5044717;28;20064;-82
2023/05/02 05:12:49;;;;;;;0.15;0.15;;;7.00;99.90;;;;;;5038014;28;20530;-83
2023/05/02 05:15:15;;;;;;;0.00;0.00;;;7.00;99.90;;;;;;5038941;28;20647;-82
2023/05/02 05:17:41;;;;;;;1.17;0.77;;;7.00;99.90;;;;;;5037191;28;20045;-82
2023/05/02 05:20:09;;;;;;;0.00;0.00;;;7.00;99.90;;;;;;5045402;28;20076;-82
2023/05/02 05:22:38;;;;;;;0.45;0.45;;;7.00;99.90;;;;;;5058119;28;20052;-83
2023/05/02 05:25:05;;;;;;;0.00;0.00;;;7.00;99.90;;;;;;5059807;28;20045;-83
2023/05/02 05:27:31;;;;;;;0.57;0.57;;;7.00;99.90;;;;;;5057660;28;20076;-83
2023/05/02 05:29:57;;;;;;;1.88;0.60;;;7.10;99.90;;;;;;5046635;28;20135;-82
2023/05/02 05:32:23;;;;;;;0.00;0.00;;;6.60;99.90;;;;;;5052875;28;20099;-82
2023/05/02 05:34:55;;;;;;;0.00;0.00;;;7.70;99.90;;;;;;5059041;28;20045;-81
2023/05/02 05:37:20;;;;;;;5.07;1.75;;;7.10;99.90;;;;;;5059714;28;20117;-82
2023/05/02 05:39:46;;;;;;;1.00;0.65;;;7.10;99.90;;;;;;5056254;28;20076;-83
2023/05/02 05:42:12;;;;;;;0.35;0.30;;;7.10;99.90;;;;;;5055982;28;20104;-82
2023/05/02 05:44:38;;;;;;;0.00;0.00;;;7.10;99.90;;;;;;5058393;28;20101;-83
2023/05/02 05:47:04;;;;;;;0.00;0.00;;;7.20;99.90;;;;;;5056050;28;20041;-82
2023/05/02 05:49:30;;;;;;;0.43;0.43;;;7.20;99.90;;;;;;5055248;28;20407;-82
2023/05/02 05:51:56;;;;;;;2.65;1.48;;;7.20;99.90;;;;;;5054677;28;20049;-82
2023/05/02 05:54:22;;;;;;;0.00;0.00;;;7.30;99.90;;;;;;5054371;28;20064;-82
2023/05/02 05:56:47;;;;;;;0.32;0.32;;;7.30;99.90;;;;;;5052873;28;20077;-82
2023/05/02 05:59:13;;;;;;;0.32;0.25;;;7.30;99.90;;;;;;5053765;28;20045;-82
2023/05/02 06:01:39;;;;;;;0.28;0.28;;;7.30;99.90;;;;;;5053739;28;20044;-82
2023/05/02 06:04:06;;;;;;;0.00;0.00;;;7.30;99.90;;;;;;5054856;28;20047;-82
2023/05/02 06:06:32;;;;;;;0.47;0.47;;;7.30;99.90;;;;;;5054465;28;20041;-82
2023/05/02 06:08:58;;;;;;;0.57;0.47;;;7.30;99.90;;;;;;5053723;28;20049;-81
2023/05/02 06:11:25;;;;;;;0.00;0.00;;;7.30;99.90;;;;;;5055456;28;20411;-82
2023/05/02 06:13:51;;;;;;;0.75;0.75;;;7.30;99.90;;;;;;5054590;28;20044;-82
2023/05/02 06:16:23;;;;;;;2.80;0.43;;;7.40;99.90;;;;;;5054701;28;20053;-82
2023/05/02 06:18:50;;;;;;;0.47;0.47;;;7.40;99.90;;;;;;5054048;28;20040;-83
2023/05/02 06:21:16;;;;;;;0.00;0.00;;;7.50;99.90;;;;;;5054441;28;20049;-83
2023/05/02 06:23:41;;;;;;;0.55;0.52;;;7.50;99.90;;;;;;5053993;28;20048;-83
2023/05/02 06:26:08;;;;;;;0.00;0.00;;;7.50;99.90;;;;;;5054926;28;20049;-82
2023/05/02 06:28:34;;;;;;;0.00;0.00;;;7.60;99.90;;;;;;5055105;28;20055;-82
2023/05/02 06:31:04;;;;;;;2.63;1.75;;;7.60;99.90;;;;;;5055537;28;20487;-82
2023/05/02 06:33:31;;;;;;;0.30;0.20;;;7.70;99.90;;;;;;5056190;28;20096;-82
2023/05/02 06:35:57;;;;;;;0.20;0.20;;;7.80;99.90;;;;;;5054510;28;20049;-82
2023/05/02 06:38:23;;;;;;;0.10;0.10;;;7.90;99.90;;;;;;5050510;28;20041;-82
2023/05/02 06:40:50;;;;;;;0.77;0.52;;;8.00;99.90;;;;;;5050992;28;20047;-82
2023/05/02 06:43:16;;;;;;;0.20;0.20;;;8.10;99.90;;;;;;5051715;28;20080;-82
2023/05/02 06:45:42;;;;;;;0.20;0.20;;;8.20;99.90;;;;;;5052332;28;20041;-82
2023/05/02 06:48:08;;;;;;;0.85;0.43;;;8.30;99.90;;;;;;5052480;28;20059;-82
2023/05/02 06:50:34;;;;;;;2.90;1.10;;;8.30;99.90;;;;;;5050661;28;20136;-82
2023/05/02 06:53:00;;;;;;;0.10;0.10;;;8.30;99.90;;;;;;5051823;28;20075;-82
2023/05/02 06:55:26;;;;;;;11.85;0.55;;;8.40;99.90;;;;;;5048818;28;20053;-82
2023/05/02 06:57:53;;;;;;;0.00;0.00;;;8.30;97.10;;;;;;5051323;28;20056;-82
2023/05/02 07:00:19;;;;;;;3.83;1.75;;;8.20;99.90;;;;;;5046620;28;20036;-83
2023/05/02 07:02:46;;;;;;;0.25;0.25;;;8.30;99.90;;;;;;5048062;28;20411;-82
2023/05/02 07:05:14;;;;;;;0.38;0.38;;;8.40;99.90;;;;;;5050312;28;20094;-82
2023/05/02 07:07:41;;;;;;;0.00;0.00;;;8.40;98.90;;;;;;5050589;28;20623;-82
2023/05/02 07:10:07;;;;;;;0.68;0.50;;;8.50;99.90;;;;;;5050798;28;20053;-82
2023/05/02 07:12:32;;;;;;;0.25;0.25;;;8.50;98.30;;;;;;5050899;28;20106;-82
2023/05/02 07:14:58;;;;;;;0.03;0.03;;;8.50;98.10;;;;;;5051345;28;20495;-82
2023/05/02 07:17:24;;;;;;;0.90;0.52;;;8.40;73.50;;;;;;5050063;28;20076;-82
2023/05/02 07:19:50;;;;;;;0.40;0.40;;;8.40;63.50;;;;;;5049640;28;20041;-82
2023/05/02 07:22:15;;;;;;;1.00;0.30;;;8.50;64.70;;;;;;5050673;28;20115;-82
2023/05/02 07:24:41;;;;;;;0.00;0.00;;;8.60;74.10;;;;;;5049562;28;20384;-82
2023/05/02 07:27:11;;;;;;;0.30;0.30;;;8.80;81.50;;;;;;5050532;28;20048;-82
2023/05/02 07:29:38;;;;;;;0.00;0.00;;;9.00;65.90;;;;;;5050430;28;20524;-82
2023/05/02 07:32:04;;;;;;;3.42;1.27;;;9.10;64.40;;;;;;5050022;28;20155;-82
2023/05/02 07:34:30;;;;;;;2.05;0.70;;;9.00;45.90;;;;;;5049945;28;20402;-83
2023/05/02 07:36:57;;;;;;;1.55;0.70;;;9.30;65.90;;;;;;5052450;28;20240;-83
2023/05/02 07:39:23;;;;;;;0.52;0.25;;;9.70;83.00;;;;;;5050823;28;20041;-83
2023/05/02 07:41:53;;;;;;;0.45;0.28;;;10.10;74.50;;;;;;5050978;28;20632;-83
2023/05/02 07:44:19;;;;;;;0.30;0.30;;;10.10;57.50;;;;;;5052010;28;20041;-82
2023/05/02 07:46:44;;;;;;;0.00;0.00;;;10.30;48.00;;;;;;5051304;28;20052;-82
2023/05/02 07:49:10;;;;;;;0.10;0.10;;;10.30;38.20;;;;;;5050439;28;20480;-82
2023/05/02 07:51:36;;;;;;;0.22;0.15;;;10.70;24.50;;;;;;5051654;28;20360;-83
2023/05/02 07:54:02;;;;;;;0.90;0.52;;;10.40;31.60;;;;;;5048854;28;20049;-83
2023/05/02 07:56:29;;;;;;;0.88;0.82;;;10.20;19.20;;;;;;5050795;28;20451;-82
2023/05/02 07:58:54;;;;;;;0.20;0.20;;;9.90;14.80;;;;;;5050914;28;20055;-83
2023/05/02 08:01:20;;;;;;;0.00;0.00;;;9.90;16.40;;;;;;5051186;28;20063;-82
2023/05/02 08:03:46;;;;;;;0.40;0.40;;;9.90;12.00;;;;;;5048947;28;20088;-83
2023/05/02 08:06:12;;;;;;;0.10;0.00;;;9.90;19.20;;;;;;5050572;28;20087;-83
2023/05/02 08:08:37;;;;;;;0.00;0.00;;;10.00;22.40;;;;;;5049240;28;20045;-83
2023/05/02 08:11:03;;;;;;;0.30;0.30;;;10.00;22.00;;;;;;5049044;28;20088;-82
2023/05/02 08:13:29;;;;;;;0.00;0.00;;;10.30;27.60;;;;;;5050244;28;20037;-82
2023/05/02 08:15:56;;;;;;;0.05;0.05;;;10.20;26.00;;;;;;5048114;28;20130;-82
2023/05/02 08:18:26;;;;;;;1.70;1.50;;;10.50;34.40;;;;;;5050310;28;20064;-83
2023/05/02 08:20:53;;;;;;;0.47;0.35;;;10.70;40.40;;;;;;5049773;28;20033;-83
2023/05/02 08:23:18;;;;;;;0.60;0.38;;;10.60;20.40;;;;;;5048602;28;20132;-83
2023/05/02 08:25:44;;;;;;;3.05;1.05;;;10.60;33.60;;;;;;5048183;28;20123;-82
2023/05/02 08:28:10;;;;;;;0.00;0.00;;;10.70;43.20;;;;;;5048470;28;20448;-82
2023/05/02 08:30:35;;;;;;;0.03;0.03;;;10.70;32.40;;;;;;5049406;28;20097;-82
2023/05/02 08:33:01;;;;;;;0.25;0.20;;;10.80;49.80;;;;;;5049126;28;20117;-82
2023/05/02 08:35:30;;;;;;;0.20;0.20;;;10.60;33.10;;;;;;5049559;28;20068;-82
2023/05/02 08:37:56;;;;;;;0.08;0.05;;;10.70;41.00;;;;;;5031329;28;20083;-82
2023/05/02 08:40:22;;;;;;;0.00;0.00;;;11.80;59.50;;;;;;5051204;28;20052;-82
2023/05/02 08:42:48;;;;;;;0.20;0.20;;;11.30;48.60;;;;;;5051891;28;20072;-82
2023/05/02 08:45:14;;;;;;;0.00;0.00;;;11.40;54.40;;;;;;5052470;28;20399;-82
2023/05/02 08:47:41;;;;;;;1.10;0.28;;;12.40;91.90;;;;;;5052797;28;20048;-83
2023/05/02 08:50:08;;;;;;;0.00;0.00;;;12.50;80.60;;;;;;5050969;28;20041;-83
2023/05/02 08:52:35;;;;;;;0.00;0.00;;;12.30;51.70;;;;;;5046646;28;20084;-84
2023/05/02 08:55:03;;;;;;;0.00;0.00;;;11.90;36.70;;;;;;5049323;28;20056;-83
2023/05/02 08:57:32;;;;;;;0.32;0.17;;;11.40;13.50;;;;;;5049840;28;20081;-83
2023/05/02 08:59:58;;;;;;;0.03;0.03;;;11.40;23.20;;;;;;5048317;28;20068;-82
2023/05/02 09:02:32;;;;;;;0.00;0.00;;;11.20;2.50;;;;;;5050249;28;20570;-83
2023/05/02 09:05:04;;;;;;;0.00;0.00;;;11.10;3.20;;;;;;5048655;28;20049;-83
2023/05/02 09:07:29;;;;;;;0.00;0.00;;;11.30;1.00;;;;;;5048826;28;20102;-82
2023/05/02 09:09:55;;;;;;;0.00;0.00;;;11.60;15.20;;;;;;5048637;28;20048;-83
2023/05/02 09:12:25;;;;;;;0.00;0.00;;;11.80;15.10;;;;;;5045664;28;20503;-83
2023/05/02 09:15:09;;;;;;;0.00;0.00;;;12.70;30.60;;;;;;5047631;28;20064;-83
2023/05/02 09:17:42;;;;;;;0.15;0.15;;;12.60;28.70;;;;;;5051444;28;20072;-83
2023/05/02 09:20:10;;;;;;;0.00;0.00;;;12.90;50.00;;;;;;5049932;28;20053;-83
2023/05/02 09:22:36;;;;;;;1.17;0.85;;;12.60;22.30;;;;;;5060328;28;20060;-83
2023/05/02 09:25:03;;;;;;;0.25;0.17;;;13.00;17.70;;;;;;5059967;28;20060;-82
2023/05/02 09:27:29;;;;;;;0.93;0.20;;;12.10;2.10;;;;;;5052559;28;20084;-83
2023/05/02 09:30:18;;;;;;;0.52;0.30;;;11.90;1.00;;;;;;5051584;28;20053;-83
2023/05/02 09:32:45;;;;;;;0.00;0.00;;;12.50;3.90;;;;;;5052105;28;20044;-83
2023/05/02 09:35:11;;;;;;;0.68;0.52;;;12.30;3.00;;;;;;5051055;28;20059;-83
2023/05/02 09:37:36;;;;;;;0.00;0.00;;;12.30;1.00;;;;;;5052957;28;20080;-83
2023/05/02 09:40:06;;;;;;;0.10;0.10;;;12.10;1.00;;;;;;5058031;28;20074;-82
2023/05/02 09:42:32;;;;;;;2.38;1.27;;;12.10;1.00;;;;;;5066127;28;20029;-82
2023/05/02 09:44:57;;;;;;;0.00;0.00;;;12.00;1.00;;;;;;5064286;28;20040;-82
2023/05/02 09:47:26;;;;;;;0.00;0.00;;;11.80;1.00;;;;;;5067422;28;20056;-83
2023/05/02 09:49:52;;;;;;;0.63;0.63;;;11.80;1.00;;;;;;5064562;28;20037;-82
2023/05/02 09:52:22;;;;;;;0.10;0.10;;;11.80;1.00;;;;;;5057813;28;20167;-83
2023/05/02 09:54:50;;;;;;;0.00;0.00;;;12.10;1.00;;;;;;5060876;28;20064;-82
2023/05/02 09:57:16;;;;;;;0.00;0.00;;;12.30;2.30;;;;;;5060384;28;20057;-83
2023/05/02 09:59:55;;;;;;;11.07;0.57;;;12.60;4.50;;;;;;5061124;28;20045;-83
2023/05/02 10:02:22;;;;;;;0.00;0.00;;;12.50;11.00;;;;;;5062839;28;20045;-82
2023/05/02 10:04:50;;;;;;;0.52;0.25;;;12.20;11.10;;;;;;5064268;28;20116;-83
2023/05/02 10:07:16;;;;;;;0.13;0.10;;;11.70;1.00;;;;;;5064718;28;20060;-82
2023/05/02 10:09:46;;;;;;;0.00;0.00;;;11.60;1.00;;;;;;5064859;28;20044;-83
2023/05/02 10:12:15;;;;;;;0.45;0.28;;;11.50;1.00;;;;;;5062397;28;20044;-83
2023/05/02 10:14:53;;;;;;;0.30;0.30;;;11.40;1.00;;;;;;5061833;28;20041;-83
2023/05/02 10:17:29;;;;;;;1.50;0.57;;;11.90;10.30;;;;;;5063546;28;20080;-83
2023/05/02 10:20:06;;;;;;;0.00;0.00;;;12.20;16.80;;;;;;5060772;28;20102;-83
2023/05/02 10:22:35;;;;;;;0.00;0.00;;;12.70;32.20;;;;;;5062260;28;20045;-83
2023/05/02 10:25:02;;;;;;;0.00;0.00;;;13.50;46.40;;;;;;5054201;28;20036;-83
2023/05/02 10:27:31;;;;;;;0.00;0.00;;;13.70;60.00;;;;;;5046757;28;20045;-83
2023/05/02 10:30:03;;;;;;;0.00;0.00;;;14.60;73.20;;;;;;5047760;28;20960;-83
2023/05/02 10:32:31;;;;;;;0.00;0.00;;;14.30;56.40;;;;;;5046245;28;20051;-83
2023/05/02 10:35:01;;;;;;;0.00;0.00;;;13.20;15.70;;;;;;5046940;28;20498;-83
2023/05/02 10:37:28;;;;;;;0.20;0.10;;;13.30;16.90;;;;;;5046806;28;20055;-83
2023/05/02 10:39:54;;;;;;;0.00;0.00;;;12.50;5.70;;;;;;5050003;28;20076;-83
2023/05/02 10:42:20;;;;;;;0.10;0.10;;;11.80;1.00;;;;;;5049816;28;20636;-83
2023/05/02 10:44:46;;;;;;;0.03;0.03;;;11.60;1.00;;;;;;5047102;28;20096;-84
2023/05/02 10:47:19;;;;;;;0.10;0.10;;;11.70;1.00;;;;;;5030175;28;20080;-83
2023/05/02 10:49:59;;;;;;;0.00;0.00;;;11.80;1.00;;;;;;5047215;28;20045;-83
2023/05/02 10:52:29;;;;;;;0.00;0.00;;;12.10;1.00;;;;;;5045204;28;20410;-83
2023/05/02 10:55:20;;;;;;;0.00;0.00;;;12.40;1.00;;;;;;5043339;28;20499;-83
2023/05/02 10:58:01;;;;;;;0.00;0.00;;;13.40;34.70;;;;;;5044965;28;20128;-84
2023/05/02 11:00:28;;;;;;;0.00;0.00;;;14.10;45.80;;;;;;5046155;28;20049;-84
2023/05/02 11:02:55;;;;;;;0.00;0.00;;;14.20;35.20;;;;;;5043689;28;20045;-84
2023/05/02 11:05:24;;;;;;;0.00;0.00;;;13.40;10.90;;;;;;5034625;28;20045;-84
2023/05/02 11:08:16;;;;;;;0.35;0.32;;;12.90;1.00;;;;;;5032351;28;20036;-84
2023/05/02 11:10:42;;;;;;;0.00;0.00;;;12.60;1.00;;;;;;5045095;28;20056;-84
2023/05/02 11:13:08;;;;;;;0.20;0.20;;;13.00;2.90;;;;;;5044012;28;20045;-84
2023/05/02 11:15:39;;;;;;;0.13;0.10;;;13.00;1.00;;;;;;5044553;28;20055;-85
2023/05/02 11:18:07;;;;;;;0.00;0.00;;;13.00;1.00;;;;;;5040469;28;20941;-84
2023/05/02 11:20:34;;;;;;;0.00;0.00;;;12.90;1.00;;;;;;5042536;28;20605;-84
2023/05/02 11:23:15;;;;;;;0.00;0.00;;;12.70;1.00;;;;;;5041910;28;20085;-85
2023/05/02 11:25:46;;;;;;;0.13;0.00;;;12.80;1.00;;;;;;5041906;28;20067;-85
2023/05/02 11:28:47;;;;;;;1.65;0.20;;;12.80;1.80;;;;;;5042934;28;20101;-84
2023/05/02 11:31:28;;;;;;;0.00;0.00;;;12.70;1.00;;;;;;5020515;28;20491;-84
2023/05/02 11:34:01;;;;;;;0.00;0.00;;;12.60;4.10;;;;;;5042368;28;20083;-84
2023/05/02 11:36:28;;;;;;;0.00;0.00;;;12.70;10.10;;;;;;5041249;28;20037;-84
2023/05/02 11:38:54;;;;;;;0.10;0.10;;;12.80;9.40;;;;;;5042162;28;20049;-84
2023/05/02 11:41:19;;;;;;;1.17;0.47;;;13.30;28.50;;;;;;5041276;28;20150;-84
2023/05/02 11:43:45;;;;;;;0.00;0.00;;;13.40;24.10;;;;;;5022132;28;20499;-84
2023/05/02 11:46:11;;;;;;;0.00;0.00;;;13.60;33.70;;;;;;5022273;28;20041;-85
2023/05/02 11:48:37;;;;;;;0.10;0.10;;;13.90;39.70;;;;;;5021807;28;20049;-84
2023/05/02 11:51:04;;;;;;;0.00;0.00;;;14.30;46.60;;;;;;5037987;28;20103;-85
2023/05/02 11:53:30;;;;;;;3.40;0.65;;;14.70;60.80;;;;;;5041139;28;20569;-85
2023/05/02 11:56:03;;;;;;;0.05;0.05;;;15.20;69.00;;;;;;5042553;28;20937;-85
2023/05/02 11:58:31;;;;;;;0.00;0.00;;;15.50;64.70;;;;;;5040346;28;20087;-85
2023/05/02 12:00:57;;;;;;;0.00;0.00;;;15.40;62.80;;;;;;5025708;28;20060;-85
2023/05/02 12:03:32;;;;;;;0.00;0.00;;;15.60;45.60;;;;;;5021883;28;20060;-84
2023/05/02 12:06:17;;;;;;;0.08;0.08;;;13.80;17.30;;;;;;5021278;28;20041;-85
2023/05/02 12:08:43;;;;;;;0.10;0.10;;;13.50;13.20;;;;;;5020010;28;20124;-82
2023/05/02 12:11:13;;;;;;;0.00;0.00;;;12.80;1.00;;;;;;5019638;28;20053;-82
2023/05/02 12:13:47;;;;;;;3.60;0.93;;;12.70;1.00;;;;;;5021906;28;20049;-83
2023/05/02 12:16:13;;;;;;;0.52;0.45;;;12.90;1.00;;;;;;5021718;28;20182;-83
2023/05/02 12:18:38;;;;;;;0.00;0.00;;;12.80;1.00;;;;;;5033565;28;20037;-83
2023/05/02 12:21:05;;;;;;;0.00;0.00;;;13.00;1.00;;;;;;5041392;28;20125;-83
2023/05/02 12:23:31;;;;;;;0.00;0.00;;;13.20;1.90;;;;;;5040393;28;20231;-83
2023/05/02 12:25:57;;;;;;;0.00;0.00;;;14.30;12.60;;;;;;5042580;28;20124;-83
2023/05/02 12:28:23;;;;;;;0.00;0.00;;;14.30;28.70;;;;;;5043245;28;20071;-83
2023/05/02 12:30:50;;;;;;;0.52;0.20;;;14.40;35.20;;;;;;5042021;28;20521;-83
2023/05/02 12:33:17;;;;;;;0.00;0.00;;;14.30;24.40;;;;;;5040654;28;20052;-83
2023/05/02 12:35:45;;;;;;;0.45;0.20;;;14.10;21.20;;;;;;5043321;28;20128;-83
2023/05/02 12:38:19;;;;;;;0.00;0.00;;;13.80;6.10;;;;;;5042561;28;20056;-83
2023/05/02 12:40:56;;;;;;;0.00;0.00;;;14.20;14.60;;;;;;5043131;28;20044;-83
2023/05/02 12:43:22;;;;;;;0.00;0.00;;;14.30;20.90;;;;;;5043981;28;20045;-83
2023/05/02 12:45:49;;;;;;;0.00;0.00;;;15.50;16.70;;;;;;5043529;28;20033;-83
2023/05/02 12:48:25;;;;;;;0.00;0.00;;;14.60;8.00;;;;;;5044095;28;20392;-84
2023/05/02 12:50:53;;;;;;;0.00;0.00;;;15.10;25.30;;;;;;5047382;28;20407;-84
2023/05/02 12:53:57;;;;;;;0.00;0.00;;;15.90;29.00;;;;;;5046382;28;20044;-83
2023/05/02 12:56:23;;;;;;;0.00;0.00;;;15.30;19.70;;;;;;5004136;28;20053;-83
2023/05/02 12:58:49;;;;;;;1.35;0.38;;;15.10;15.70;;;;;;4988627;28;20076;-83
2023/05/02 13:01:15;;;;;;;0.10;0.00;;;14.60;1.00;;;;;;5023954;28;20129;-83
2023/05/02 13:03:42;;;;;;;0.00;0.00;;;14.40;1.00;;;;;;5047449;28;20510;-83